Glykofilousa — SVA4543 — position and weather

sailwx.info

Track history (hours):
 
Tides and Currents Weather Stations Pressure Air Temp Water Temp Dewpoint Dewpoint Depression Visibility Wind Speed Wind Dir Waves Ship Positions

Glykofilousa

Last reported at 2018-Feb-18 22:48 UTC. Time now 2018-Feb-21 21:31 UTC.
Position N 37°57' E 023°37'.

Length 27 m; draft 2.5 m.

Type: Fishing. MMSI: 241063000.

Date/timePositionNaut miles runAvg speedWind from/ knotsBaromVisibWave heightAir tempDewpointWater temp
2018-Feb-18 22:48N 37°57' E 023°37'0 0.0
2018-Feb-18 22:30N 37°57' E 023°37'0 0.0
2018-Feb-18 22:00N 37°57' E 023°37'0 0.0
2018-Feb-18 21:30N 37°57' E 023°37'0 0.8
2018-Feb-18 21:00N 37°57' E 023°36'5 9.4
2018-Feb-18 20:30N 37°53' E 023°36'5 9.5
2018-Feb-18 20:00N 37°48' E 023°36'2 3.1
2018-Feb-18 19:14N 37°46' E 023°37'1 3.0
2018-Feb-18 18:59N 37°46' E 023°37'19 4.4
2018-Feb-18 14:30N 37°54' E 023°14'2 3.1
2018-Feb-18 14:00N 37°54' E 023°12'2 3.1
2018-Feb-18 13:31N 37°52' E 023°12'2 3.1
2018-Feb-18 13:00N 37°52' E 023°14'2 0.7
2018-Feb-18 10:07N 37°52' E 023°16'0 3.0
2018-Feb-18 09:59N 37°52' E 023°16'2 3.0
2018-Feb-18 09:27N 37°53' E 023°14'1 3.0
2018-Feb-18 09:00N 37°53' E 023°12'1 2.9
2018-Feb-18 08:30N 37°53' E 023°11'1 2.6
2018-Feb-18 08:00N 37°54' E 023°09'1 1.6
2018-Feb-18 07:30N 37°53' E 023°10'1 3.0
2018-Feb-18 07:00N 37°53' E 023°12'2 3.1
2018-Feb-18 06:30N 37°52' E 023°14'12 4.6
2018-Feb-18 03:50N 37°50' E 023°29'3 9.6
2018-Feb-18 03:29N 37°48' E 023°33'2 3.2
2018-Feb-18 03:00N 37°48' E 023°35'9 2.7
2018-Feb-17 23:36N 37°57' E 023°37'0 0.0
2018-Feb-17 23:30N 37°57' E 023°37'1 1.2
2018-Feb-17 23:00N 37°57' E 023°36'5 9.4
2018-Feb-17 22:30N 37°53' E 023°35'5 9.4
2018-Feb-17 22:00N 37°48' E 023°35'1 2.0
2018-Feb-17 21:30N 37°48' E 023°36'17 2.2
2018-Feb-17 13:37N 37°52' E 023°14'1 3.1
2018-Feb-17 13:23N 37°52' E 023°14'1 3.0
2018-Feb-17 13:00N 37°52' E 023°12'2 3.1
2018-Feb-17 12:31N 37°53' E 023°10'1 1.6
2018-Feb-17 12:01N 37°54' E 023°10'1 2.9
2018-Feb-17 11:31N 37°53' E 023°12'2 3.0
2018-Feb-17 11:00N 37°53' E 023°13'2 2.9
2018-Feb-17 10:28N 37°52' E 023°15'1 0.1
2018-Feb-17 06:44N 37°52' E 023°15'1 3.1
2018-Feb-17 06:29N 37°52' E 023°14'1 3.0
2018-Feb-17 06:01N 37°52' E 023°12'1 2.8
2018-Feb-17 05:30N 37°53' E 023°10'2 3.6
2018-Feb-17 05:00N 37°53' E 023°08'0 0.6
2018-Feb-17 04:30N 37°53' E 023°08'2 3.0
2018-Feb-17 04:01N 37°53' E 023°10'2 3.1
2018-Feb-17 03:28N 37°53' E 023°12'1 3.1
2018-Feb-17 03:01N 37°53' E 023°14'2 3.1
2018-Feb-17 02:31N 37°53' E 023°16'2 3.2
2018-Feb-17 01:59N 37°53' E 023°18'9 4.9
2018-Feb-17 00:10N 37°52' E 023°29'1 9.3
2018-Feb-17 00:00N 37°53' E 023°30'4 8.9
2018-Feb-16 23:31N 37°56' E 023°34'2 4.6
2018-Feb-16 23:00N 37°57' E 023°37'1 2.0
2018-Feb-16 22:31N 37°57' E 023°36'4 8.6
2018-Feb-16 22:01N 37°52' E 023°35'3 6.0
2018-Feb-16 21:31N 37°50' E 023°34'1 2.3
2018-Feb-16 21:00N 37°49' E 023°33'2 2.9
2018-Feb-16 20:26N 37°50' E 023°31'1 3.1
2018-Feb-16 20:00N 37°50' E 023°29'12 2.5
2018-Feb-16 15:00N 37°52' E 023°14'1 3.0
2018-Feb-16 14:30N 37°53' E 023°12'2 3.7
2018-Feb-16 14:00N 37°54' E 023°10'1 1.4
2018-Feb-16 13:31N 37°53' E 023°11'2 3.0
2018-Feb-16 13:01N 37°53' E 023°13'2 3.1
2018-Feb-16 12:29N 37°52' E 023°15'1 0.2
2018-Feb-16 08:46N 37°52' E 023°15'1 3.1
2018-Feb-16 08:27N 37°52' E 023°14'1 3.0
2018-Feb-16 08:00N 37°52' E 023°12'2 3.1
2018-Feb-16 07:31N 37°53' E 023°11'2 3.3
2018-Feb-16 07:00N 37°53' E 023°09'1 1.3
2018-Feb-16 06:30N 37°53' E 023°08'1 3.0
2018-Feb-16 06:00N 37°53' E 023°10'1 2.9
2018-Feb-16 05:30N 37°53' E 023°11'2 3.0
2018-Feb-16 05:01N 37°52' E 023°13'2 3.1
2018-Feb-16 04:31N 37°52' E 023°15'10 4.3
2018-Feb-16 02:08N 37°52' E 023°28'1 9.3
2018-Feb-16 02:00N 37°52' E 023°29'5 9.4
2018-Feb-16 01:30N 37°55' E 023°34'3 6.9
2018-Feb-16 01:01N 37°57' E 023°37'0 0.0
2018-Feb-16 00:31N 37°57' E 023°37'0 0.0
2018-Feb-16 00:01N 37°57' E 023°37'0 0.0
2018-Feb-15 23:31N 37°57' E 023°37'0 0.0
2018-Feb-15 23:00N 37°57' E 023°37'0 0.0
2018-Feb-15 22:30N 37°57' E 023°37'0 0.0
2018-Feb-15 22:01N 37°57' E 023°37'0 0.0
2018-Feb-15 21:31N 37°57' E 023°37'0 0.0
2018-Feb-15 21:00N 37°57' E 023°37'0 0.0
2018-Feb-15 20:31N 37°57' E 023°37'0 0.0
2018-Feb-15 20:00N 37°57' E 023°37'0 0.0
2018-Feb-15 19:30N 37°57' E 023°37'1 1.0
2018-Feb-15 19:01N 37°57' E 023°36'4 7.6
2018-Feb-15 18:31N 37°54' E 023°33'5 9.2
2018-Feb-15 18:00N 37°52' E 023°28'9 3.7
2018-Feb-15 15:29N 37°52' E 023°16'1 3.0
2018-Feb-15 15:00N 37°52' E 023°15'2 3.1
2018-Feb-15 14:30N 37°53' E 023°13'2 3.6
2018-Feb-15 14:00N 37°54' E 023°11'0 0.2
2018-Feb-15 13:30N 37°54' E 023°11'1 3.0
2018-Feb-15 13:00N 37°53' E 023°12'2 3.0
2018-Feb-15 12:30N 37°52' E 023°14'2 0.5
2018-Feb-15 08:45N 37°52' E 023°16'1 3.0
2018-Feb-15 08:23N 37°52' E 023°15'2 3.0
2018-Feb-15 07:52N 37°53' E 023°13'1 3.0
2018-Feb-15 07:30N 37°53' E 023°12'2 3.2
2018-Feb-15 07:00N 37°54' E 023°10'1 1.4
2018-Feb-15 06:30N 37°54' E 023°10'1 3.0
2018-Feb-15 06:00N 37°52' E 023°12'2 0.1
2018-Feb-14 13:32N 37°54' E 023°13'0 3.0
2018-Feb-14 13:25N 37°54' E 023°13'1 2.4
2018-Feb-14 13:00N 37°55' E 023°11'1 2.7
2018-Feb-14 12:30N 37°54' E 023°13'2 2.9
2018-Feb-14 11:52N 37°52' E 023°14'1 0.1
2018-Feb-14 07:16N 37°53' E 023°14'1 3.0
2018-Feb-14 06:59N 37°53' E 023°13'2 3.5
2018-Feb-14 06:30N 37°53' E 023°11'1 1.2
2018-Feb-14 06:00N 37°54' E 023°11'1 3.0
2018-Feb-14 05:30N 37°53' E 023°13'2 2.9
2018-Feb-14 04:48N 37°52' E 023°16'2 3.0
2018-Feb-14 04:17N 37°52' E 023°17'10 4.9
2018-Feb-14 02:16N 37°51' E 023°30'2 8.0
2018-Feb-14 02:00N 37°52' E 023°32'4 8.2
2018-Feb-14 01:30N 37°56' E 023°34'3 5.3
2018-Feb-14 01:00N 37°57' E 023°37'0 0.0
2018-Feb-14 00:30N 37°57' E 023°37'0 0.0
2018-Feb-13 23:59N 37°57' E 023°37'0 0.0
2018-Feb-13 23:30N 37°57' E 023°37'0 0.0
2018-Feb-13 23:00N 37°57' E 023°37'0 0.0
2018-Feb-13 22:30N 37°57' E 023°37'0 0.0
2018-Feb-13 22:00N 37°57' E 023°37'0 0.0
2018-Feb-13 21:30N 37°57' E 023°37'0 0.0
2018-Feb-13 21:00N 37°57' E 023°37'0 0.0
2018-Feb-13 20:30N 37°57' E 023°37'0 0.0
2018-Feb-13 20:00N 37°57' E 023°37'0 0.0
2018-Feb-13 19:30N 37°57' E 023°37'0 0.0
2018-Feb-13 19:00N 37°57' E 023°37'3 7.0
2018-Feb-13 18:30N 37°55' E 023°34'5 9.3
2018-Feb-13 18:00N 37°52' E 023°29'12 3.4
2018-Feb-13 14:22N 37°54' E 023°13'1 3.9
2018-Feb-13 13:59N 37°56' E 023°13'1 1.6
2018-Feb-13 13:30N 37°55' E 023°14'2 0.3
2018-Feb-13 08:09N 37°53' E 023°13'1 2.9
2018-Feb-13 07:57N 37°54' E 023°12'2 2.8
2018-Feb-13 07:24N 37°55' E 023°12'1 1.8
2018-Feb-13 07:00N 37°56' E 023°13'19 0.6
2018-Feb-12 02:01N 37°57' E 023°37'0 0.0
2018-Feb-12 02:00N 37°57' E 023°37'0 0.0
2018-Feb-12 01:30N 37°57' E 023°37'0 0.0
2018-Feb-12 01:00N 37°57' E 023°37'0 0.0
2018-Feb-12 00:30N 37°57' E 023°37'0 0.0
2018-Feb-12 00:00N 37°57' E 023°37'0 0.0
2018-Feb-11 23:30N 37°57' E 023°37'0 0.0
2018-Feb-11 23:00N 37°57' E 023°37'0 0.0
2018-Feb-11 22:30N 37°57' E 023°37'0 0.0
2018-Feb-11 22:00N 37°57' E 023°37'0 0.0
2018-Feb-11 21:27N 37°57' E 023°37'0 0.0
2018-Feb-11 21:00N 37°57' E 023°37'0 0.0
2018-Feb-11 20:30N 37°57' E 023°37'0 0.0
2018-Feb-11 20:00N 37°57' E 023°37'0 0.0
2018-Feb-11 19:30N 37°57' E 023°37'0 0.0
2018-Feb-11 19:00N 37°57' E 023°37'0 0.0
2018-Feb-11 18:30N 37°57' E 023°37'1 1.1
2018-Feb-11 18:00N 37°57' E 023°36'4 8.7
2018-Feb-11 17:30N 37°54' E 023°32'4 8.0
2018-Feb-11 17:00N 37°52' E 023°28'4 3.0
2018-Feb-11 15:33N 37°51' E 023°23'0 3.0
2018-Feb-11 15:28N 37°51' E 023°22'6 2.8
2018-Feb-11 13:16N 37°55' E 023°16'1 3.0
2018-Feb-11 12:59N 37°55' E 023°16'3 0.8
2018-Feb-11 09:40N 37°52' E 023°16'1 3.0
2018-Feb-11 09:22N 37°52' E 023°15'1 3.0
2018-Feb-11 09:00N 37°53' E 023°14'1 3.0
2018-Feb-11 08:30N 37°53' E 023°12'2 3.6
2018-Feb-11 08:00N 37°54' E 023°10'1 1.3
2018-Feb-11 07:30N 37°55' E 023°11'1 3.0
2018-Feb-11 07:00N 37°56' E 023°12'19 0.6
2018-Feb-09 22:23N 37°57' E 023°37'0 0.0
2018-Feb-09 22:01N 37°57' E 023°37'0 0.0
2018-Feb-09 21:31N 37°57' E 023°37'  
Track history (hours):
 
Tides and Currents Weather Stations Pressure Air Temp Water Temp Dewpoint Dewpoint Depression Visibility Wind Speed Wind Dir Waves Ship Positions

Glykofilousa

Last reported at 2018-Feb-18 22:48 UTC. Time now 2018-Feb-21 21:31 UTC.
Position N 37°57' E 023°37'.

Length 27 m; draft 2.5 m.

Type: Fishing. MMSI: 241063000.

Date/timePositionNaut miles runAvg speedWind from/ knotsBaromVisibWave heightAir tempDewpointWater temp
2018-Feb-18 22:48N 37°57' E 023°37'0 0.0
2018-Feb-18 22:30N 37°57' E 023°37'0 0.0
2018-Feb-18 22:00N 37°57' E 023°37'0 0.0
2018-Feb-18 21:30N 37°57' E 023°37'0 0.8
2018-Feb-18 21:00N 37°57' E 023°36'5 9.4
2018-Feb-18 20:30N 37°53' E 023°36'5 9.5
2018-Feb-18 20:00N 37°48' E 023°36'2 3.1
2018-Feb-18 19:14N 37°46' E 023°37'1 3.0
2018-Feb-18 18:59N 37°46' E 023°37'19 4.4
2018-Feb-18 14:30N 37°54' E 023°14'2 3.1
2018-Feb-18 14:00N 37°54' E 023°12'2 3.1
2018-Feb-18 13:31N 37°52' E 023°12'2 3.1
2018-Feb-18 13:00N 37°52' E 023°14'2 0.7
2018-Feb-18 10:07N 37°52' E 023°16'0 3.0
2018-Feb-18 09:59N 37°52' E 023°16'2 3.0
2018-Feb-18 09:27N 37°53' E 023°14'1 3.0
2018-Feb-18 09:00N 37°53' E 023°12'1 2.9
2018-Feb-18 08:30N 37°53' E 023°11'1 2.6
2018-Feb-18 08:00N 37°54' E 023°09'1 1.6
2018-Feb-18 07:30N 37°53' E 023°10'1 3.0
2018-Feb-18 07:00N 37°53' E 023°12'2 3.1
2018-Feb-18 06:30N 37°52' E 023°14'12 4.6
2018-Feb-18 03:50N 37°50' E 023°29'3 9.6
2018-Feb-18 03:29N 37°48' E 023°33'2 3.2
2018-Feb-18 03:00N 37°48' E 023°35'9 2.7
2018-Feb-17 23:36N 37°57' E 023°37'0 0.0
2018-Feb-17 23:30N 37°57' E 023°37'1 1.2
2018-Feb-17 23:00N 37°57' E 023°36'5 9.4
2018-Feb-17 22:30N 37°53' E 023°35'5 9.4
2018-Feb-17 22:00N 37°48' E 023°35'1 2.0
2018-Feb-17 21:30N 37°48' E 023°36'17 2.2
2018-Feb-17 13:37N 37°52' E 023°14'1 3.1
2018-Feb-17 13:23N 37°52' E 023°14'1 3.0
2018-Feb-17 13:00N 37°52' E 023°12'2 3.1
2018-Feb-17 12:31N 37°53' E 023°10'1 1.6
2018-Feb-17 12:01N 37°54' E 023°10'1 2.9
2018-Feb-17 11:31N 37°53' E 023°12'2 3.0
2018-Feb-17 11:00N 37°53' E 023°13'2 2.9
2018-Feb-17 10:28N 37°52' E 023°15'1 0.1
2018-Feb-17 06:44N 37°52' E 023°15'1 3.1
2018-Feb-17 06:29N 37°52' E 023°14'1 3.0
2018-Feb-17 06:01N 37°52' E 023°12'1 2.8
2018-Feb-17 05:30N 37°53' E 023°10'2 3.6
2018-Feb-17 05:00N 37°53' E 023°08'0 0.6
2018-Feb-17 04:30N 37°53' E 023°08'2 3.0
2018-Feb-17 04:01N 37°53' E 023°10'2 3.1
2018-Feb-17 03:28N 37°53' E 023°12'1 3.1
2018-Feb-17 03:01N 37°53' E 023°14'2 3.1
2018-Feb-17 02:31N 37°53' E 023°16'2 3.2
2018-Feb-17 01:59N 37°53' E 023°18'9 4.9
2018-Feb-17 00:10N 37°52' E 023°29'1 9.3
2018-Feb-17 00:00N 37°53' E 023°30'4 8.9
2018-Feb-16 23:31N 37°56' E 023°34'2 4.6
2018-Feb-16 23:00N 37°57' E 023°37'1 2.0
2018-Feb-16 22:31N 37°57' E 023°36'4 8.6
2018-Feb-16 22:01N 37°52' E 023°35'3 6.0
2018-Feb-16 21:31N 37°50' E 023°34'1 2.3
2018-Feb-16 21:00N 37°49' E 023°33'2 2.9
2018-Feb-16 20:26N 37°50' E 023°31'1 3.1
2018-Feb-16 20:00N 37°50' E 023°29'12 2.5
2018-Feb-16 15:00N 37°52' E 023°14'1 3.0
2018-Feb-16 14:30N 37°53' E 023°12'2 3.7
2018-Feb-16 14:00N 37°54' E 023°10'1 1.4
2018-Feb-16 13:31N 37°53' E 023°11'2 3.0
2018-Feb-16 13:01N 37°53' E 023°13'2 3.1
2018-Feb-16 12:29N 37°52' E 023°15'1 0.2
2018-Feb-16 08:46N 37°52' E 023°15'1 3.1
2018-Feb-16 08:27N 37°52' E 023°14'1 3.0
2018-Feb-16 08:00N 37°52' E 023°12'2 3.1
2018-Feb-16 07:31N 37°53' E 023°11'2 3.3
2018-Feb-16 07:00N 37°53' E 023°09'1 1.3
2018-Feb-16 06:30N 37°53' E 023°08'1 3.0
2018-Feb-16 06:00N 37°53' E 023°10'1 2.9
2018-Feb-16 05:30N 37°53' E 023°11'2 3.0
2018-Feb-16 05:01N 37°52' E 023°13'2 3.1
2018-Feb-16 04:31N 37°52' E 023°15'10 4.3
2018-Feb-16 02:08N 37°52' E 023°28'1 9.3
2018-Feb-16 02:00N 37°52' E 023°29'5 9.4
2018-Feb-16 01:30N 37°55' E 023°34'3 6.9
2018-Feb-16 01:01N 37°57' E 023°37'0 0.0
2018-Feb-16 00:31N 37°57' E 023°37'0 0.0
2018-Feb-16 00:01N 37°57' E 023°37'0 0.0
2018-Feb-15 23:31N 37°57' E 023°37'0 0.0
2018-Feb-15 23:00N 37°57' E 023°37'0 0.0
2018-Feb-15 22:30N 37°57' E 023°37'0 0.0
2018-Feb-15 22:01N 37°57' E 023°37'0 0.0
2018-Feb-15 21:31N 37°57' E 023°37'0 0.0
2018-Feb-15 21:00N 37°57' E 023°37'0 0.0
2018-Feb-15 20:31N 37°57' E 023°37'0 0.0
2018-Feb-15 20:00N 37°57' E 023°37'0 0.0
2018-Feb-15 19:30N 37°57' E 023°37'1 1.0
2018-Feb-15 19:01N 37°57' E 023°36'4 7.6
2018-Feb-15 18:31N 37°54' E 023°33'5 9.2
2018-Feb-15 18:00N 37°52' E 023°28'9 3.7
2018-Feb-15 15:29N 37°52' E 023°16'1 3.0
2018-Feb-15 15:00N 37°52' E 023°15'2 3.1
2018-Feb-15 14:30N 37°53' E 023°13'2 3.6
2018-Feb-15 14:00N 37°54' E 023°11'0 0.2
2018-Feb-15 13:30N 37°54' E 023°11'1 3.0
2018-Feb-15 13:00N 37°53' E 023°12'2 3.0
2018-Feb-15 12:30N 37°52' E 023°14'2 0.5
2018-Feb-15 08:45N 37°52' E 023°16'1 3.0
2018-Feb-15 08:23N 37°52' E 023°15'2 3.0
2018-Feb-15 07:52N 37°53' E 023°13'1 3.0
2018-Feb-15 07:30N 37°53' E 023°12'2 3.2
2018-Feb-15 07:00N 37°54' E 023°10'1 1.4
2018-Feb-15 06:30N 37°54' E 023°10'1 3.0
2018-Feb-15 06:00N 37°52' E 023°12'2 0.1
2018-Feb-14 13:32N 37°54' E 023°13'0 3.0
2018-Feb-14 13:25N 37°54' E 023°13'1 2.4
2018-Feb-14 13:00N 37°55' E 023°11'1 2.7
2018-Feb-14 12:30N 37°54' E 023°13'2 2.9
2018-Feb-14 11:52N 37°52' E 023°14'1 0.1
2018-Feb-14 07:16N 37°53' E 023°14'1 3.0
2018-Feb-14 06:59N 37°53' E 023°13'2 3.5
2018-Feb-14 06:30N 37°53' E 023°11'1 1.2
2018-Feb-14 06:00N 37°54' E 023°11'1 3.0
2018-Feb-14 05:30N 37°53' E 023°13'2 2.9
2018-Feb-14 04:48N 37°52' E 023°16'2 3.0
2018-Feb-14 04:17N 37°52' E 023°17'10 4.9
2018-Feb-14 02:16N 37°51' E 023°30'2 8.0
2018-Feb-14 02:00N 37°52' E 023°32'4 8.2
2018-Feb-14 01:30N 37°56' E 023°34'3 5.3
2018-Feb-14 01:00N 37°57' E 023°37'0 0.0
2018-Feb-14 00:30N 37°57' E 023°37'0 0.0
2018-Feb-13 23:59N 37°57' E 023°37'0 0.0
2018-Feb-13 23:30N 37°57' E 023°37'0 0.0
2018-Feb-13 23:00N 37°57' E 023°37'0 0.0
2018-Feb-13 22:30N 37°57' E 023°37'0 0.0
2018-Feb-13 22:00N 37°57' E 023°37'0 0.0
2018-Feb-13 21:30N 37°57' E 023°37'0 0.0
2018-Feb-13 21:00N 37°57' E 023°37'0 0.0
2018-Feb-13 20:30N 37°57' E 023°37'0 0.0
2018-Feb-13 20:00N 37°57' E 023°37'0 0.0
2018-Feb-13 19:30N 37°57' E 023°37'0 0.0
2018-Feb-13 19:00N 37°57' E 023°37'3 7.0
2018-Feb-13 18:30N 37°55' E 023°34'5 9.3
2018-Feb-13 18:00N 37°52' E 023°29'12 3.4
2018-Feb-13 14:22N 37°54' E 023°13'1 3.9
2018-Feb-13 13:59N 37°56' E 023°13'1 1.6
2018-Feb-13 13:30N 37°55' E 023°14'2 0.3
2018-Feb-13 08:09N 37°53' E 023°13'1 2.9
2018-Feb-13 07:57N 37°54' E 023°12'2 2.8
2018-Feb-13 07:24N 37°55' E 023°12'1 1.8
2018-Feb-13 07:00N 37°56' E 023°13'19 0.6
2018-Feb-12 02:01N 37°57' E 023°37'0 0.0
2018-Feb-12 02:00N 37°57' E 023°37'0 0.0
2018-Feb-12 01:30N 37°57' E 023°37'0 0.0
2018-Feb-12 01:00N 37°57' E 023°37'0 0.0
2018-Feb-12 00:30N 37°57' E 023°37'0 0.0
2018-Feb-12 00:00N 37°57' E 023°37'0 0.0
2018-Feb-11 23:30N 37°57' E 023°37'0 0.0
2018-Feb-11 23:00N 37°57' E 023°37'0 0.0
2018-Feb-11 22:30N 37°57' E 023°37'0 0.0
2018-Feb-11 22:00N 37°57' E 023°37'0 0.0
2018-Feb-11 21:27N 37°57' E 023°37'0 0.0
2018-Feb-11 21:00N 37°57' E 023°37'0 0.0
2018-Feb-11 20:30N 37°57' E 023°37'0 0.0
2018-Feb-11 20:00N 37°57' E 023°37'0 0.0
2018-Feb-11 19:30N 37°57' E 023°37'0 0.0
2018-Feb-11 19:00N 37°57' E 023°37'0 0.0
2018-Feb-11 18:30N 37°57' E 023°37'1 1.1
2018-Feb-11 18:00N 37°57' E 023°36'4 8.7
2018-Feb-11 17:30N 37°54' E 023°32'4 8.0
2018-Feb-11 17:00N 37°52' E 023°28'4 3.0
2018-Feb-11 15:33N 37°51' E 023°23'0 3.0
2018-Feb-11 15:28N 37°51' E 023°22'6 2.8
2018-Feb-11 13:16N 37°55' E 023°16'1 3.0
2018-Feb-11 12:59N 37°55' E 023°16'3 0.8
2018-Feb-11 09:40N 37°52' E 023°16'1 3.0
2018-Feb-11 09:22N 37°52' E 023°15'1 3.0
2018-Feb-11 09:00N 37°53' E 023°14'1 3.0
2018-Feb-11 08:30N 37°53' E 023°12'2 3.6
2018-Feb-11 08:00N 37°54' E 023°10'1 1.3
2018-Feb-11 07:30N 37°55' E 023°11'1 3.0
2018-Feb-11 07:00N 37°56' E 023°12'19 0.6
2018-Feb-09 22:23N 37°57' E 023°37'0 0.0
2018-Feb-09 22:01N 37°57' E 023°37'0 0.0
2018-Feb-09 21:31N 37°57' E 023°37'  

Dump ship's entire track history